Time;durP1;ratioP1;P1;durP2;ratioP2;P2;SDS_P1;SDS_P2;PMS_P1;PMS_P2;Temp;Humidity;BMP_temperature;BMP_pressure;BME280_temperature;BME280_humidity;BME280_pressure;Samples;Min_cycle;Max_cycle;Signal;HPM_P1;HPM_P2
2021/12/10 00:01:04;;;;;;;7.80;2.58;;;;;;;;;;5070198;28;20193;-68
2021/12/10 00:03:33;;;;;;;3.25;2.10;;;;;;;;;;5084608;28;20200;-68
2021/12/10 00:06:01;;;;;;;4.68;2.50;;;;;;;;;;5073357;28;20192;-68
2021/12/10 00:08:29;;;;;;;4.88;2.22;;;;;;;;;;5080213;28;20234;-68
2021/12/10 00:10:58;;;;;;;3.80;2.00;;;;;;;;;;5084779;28;20197;-67
2021/12/10 00:13:25;;;;;;;4.28;1.90;;;;;;;;;;5084945;28;20203;-68
2021/12/10 00:15:54;;;;;;;5.50;1.60;;;;;;;;;;5084400;28;20197;-68
2021/12/10 00:18:21;;;;;;;4.65;1.25;;;;;;;;;;5084854;28;20196;-68
2021/12/10 00:20:50;;;;;;;6.82;2.08;;;;;;;;;;5067969;28;20197;-67
2021/12/10 00:23:17;;;;;;;4.22;1.77;;;;;;;;;;5065081;28;20235;-67
2021/12/10 00:25:47;;;;;;;4.50;1.77;;;;;;;;;;5064342;28;20429;-67
2021/12/10 00:28:25;;;;;;;7.38;1.70;;;;;;;;;;5064608;28;20265;-68
2021/12/10 00:31:04;;;;;;;3.30;1.63;;;;;;;;;;5064696;28;20200;-68
2021/12/10 00:33:33;;;;;;;5.28;1.63;;;;;;;;;;5065529;28;20204;-68
2021/12/10 00:36:00;;;;;;;3.45;1.50;;;;;;;;;;5073048;28;20485;-68
2021/12/10 00:38:26;;;;;;;4.63;1.42;;;;;;;;;;5084603;28;20188;-68
2021/12/10 00:40:53;;;;;;;2.55;1.40;;;;;;;;;;5084710;28;20204;-68
2021/12/10 00:43:21;;;;;;;5.82;1.55;;;;;;;;;;5084943;28;20184;-68
2021/12/10 00:45:47;;;;;;;5.68;1.70;;;;;;;;;;5084597;28;20220;-68
2021/12/10 00:48:14;;;;;;;4.88;1.75;;;;;;;;;;5084818;28;20379;-68
2021/12/10 00:50:41;;;;;;;2.75;1.30;;;;;;;;;;5084075;28;20365;-68
2021/12/10 00:53:08;;;;;;;3.25;1.50;;;;;;;;;;5084720;28;20204;-68
2021/12/10 00:55:34;;;;;;;2.38;1.40;;;;;;;;;;5084030;28;20203;-68
2021/12/10 00:58:02;;;;;;;4.18;1.38;;;;;;;;;;5082746;28;20209;-68
2021/12/10 01:00:32;;;;;;;3.25;1.52;;;;;;;;;;5084462;28;20196;-68
2021/12/10 01:03:01;;;;;;;4.45;1.73;;;;;;;;;;5083536;28;20196;-68
2021/12/10 01:05:28;;;;;;;2.70;1.38;;;;;;;;;;5064653;28;20277;-68
2021/12/10 01:07:54;;;;;;;3.22;1.70;;;;;;;;;;5064435;28;20201;-68
2021/12/10 01:10:22;;;;;;;3.28;1.67;;;;;;;;;;5064843;28;20197;-68
2021/12/10 01:12:51;;;;;;;2.35;1.52;;;;;;;;;;5064565;28;20197;-68
2021/12/10 01:15:38;;;;;;;4.75;1.83;;;;;;;;;;5063731;28;20220;-68
2021/12/10 01:23:51;;;;;;;4.88;1.73;;;;;;;;;;5066671;28;20212;-68
2021/12/10 01:26:36;;;;;;;3.40;1.52;;;;;;;;;;5068085;28;20189;-68
2021/12/10 01:29:02;;;;;;;1.88;1.55;;;;;;;;;;5068158;28;20497;-68
2021/12/10 01:31:29;;;;;;;2.83;1.63;;;;;;;;;;5069988;28;20200;-66
2021/12/10 01:33:56;;;;;;;4.15;1.70;;;;;;;;;;5086031;28;20203;-68
2021/12/10 01:36:23;;;;;;;4.88;1.80;;;;;;;;;;5085833;28;20429;-65
2021/12/10 01:38:52;;;;;;;4.18;1.67;;;;;;;;;;5085313;28;20238;-65
2021/12/10 01:41:19;;;;;;;4.18;1.70;;;;;;;;;;5085242;28;20204;-66
2021/12/10 01:43:47;;;;;;;2.85;1.35;;;;;;;;;;5085225;28;20196;-66
2021/12/10 01:46:18;;;;;;;2.72;1.40;;;;;;;;;;5073310;28;20220;-66
2021/12/10 01:48:46;;;;;;;2.75;1.27;;;;;;;;;;5065248;28;20505;-66
2021/12/10 01:51:15;;;;;;;3.25;1.50;;;;;;;;;;5067537;28;20400;-68
2021/12/10 01:53:43;;;;;;;2.45;1.40;;;;;;;;;;5065055;28;20400;-68
2021/12/10 01:56:10;;;;;;;1.55;1.30;;;;;;;;;;5084548;28;20200;-68
2021/12/10 01:58:37;;;;;;;1.75;1.15;;;;;;;;;;5084916;28;20200;-65
2021/12/10 02:01:06;;;;;;;1.42;1.02;;;;;;;;;;5066604;28;20193;-65
2021/12/10 02:03:33;;;;;;;1.70;1.15;;;;;;;;;;5064719;28;20197;-65
2021/12/10 02:05:59;;;;;;;3.13;1.10;;;;;;;;;;5064852;28;20197;-65
2021/12/10 02:08:28;;;;;;;2.78;1.30;;;;;;;;;;5065079;28;20198;-65
2021/12/10 02:10:54;;;;;;;4.13;1.40;;;;;;;;;;5065278;28;20231;-68
2021/12/10 02:13:21;;;;;;;5.13;1.60;;;;;;;;;;5071686;28;20189;-68
2021/12/10 02:15:47;;;;;;;5.82;2.00;;;;;;;;;;5087243;28;20219;-68
2021/12/10 02:18:14;;;;;;;4.07;2.00;;;;;;;;;;5087196;28;20221;-68
2021/12/10 02:20:50;;;;;;;3.15;1.70;;;;;;;;;;5087496;28;20197;-68
2021/12/10 02:23:16;;;;;;;4.57;2.25;;;;;;;;;;5073918;28;20185;-68
2021/12/10 02:25:43;;;;;;;3.38;2.30;;;;;;;;;;5067353;28;20446;-68
2021/12/10 02:28:11;;;;;;;5.72;1.95;;;;;;;;;;5067286;28;20424;-68
2021/12/10 02:30:39;;;;;;;2.67;2.17;;;;;;;;;;5066147;28;20197;-68
2021/12/10 02:33:05;;;;;;;4.13;2.35;;;;;;;;;;5067116;28;20523;-68
2021/12/10 02:35:32;;;;;;;6.70;1.80;;;;;;;;;;5065439;28;20205;-68
2021/12/10 02:38:00;;;;;;;3.33;2.30;;;;;;;;;;5066548;28;20220;-68
2021/12/10 02:40:27;;;;;;;2.92;2.35;;;;;;;;;;5066838;28;20497;-68
2021/12/10 02:42:55;;;;;;;6.43;2.40;;;;;;;;;;5081900;28;20257;-66
2021/12/10 02:45:23;;;;;;;3.97;2.65;;;;;;;;;;5084065;28;20216;-65
2021/12/10 02:47:50;;;;;;;2.85;2.15;;;;;;;;;;5083969;28;20493;-65
2021/12/10 02:50:18;;;;;;;3.20;2.33;;;;;;;;;;5066470;28;20490;-65
2021/12/10 02:52:44;;;;;;;4.47;2.22;;;;;;;;;;5077315;28;20197;-65
2021/12/10 02:55:15;;;;;;;3.88;2.15;;;;;;;;;;5083703;28;20234;-65
2021/12/10 02:57:42;;;;;;;3.30;2.40;;;;;;;;;;5083537;28;20257;-65
2021/12/10 03:00:09;;;;;;;2.47;1.83;;;;;;;;;;5083666;28;20196;-65
2021/12/10 03:02:36;;;;;;;7.82;2.60;;;;;;;;;;5071166;28;20201;-65
2021/12/10 03:05:03;;;;;;;3.17;2.30;;;;;;;;;;5064544;28;20201;-65
2021/12/10 03:07:30;;;;;;;4.10;2.00;;;;;;;;;;5063767;28;20231;-65
2021/12/10 03:09:58;;;;;;;4.43;2.05;;;;;;;;;;5064807;28;20197;-68
2021/12/10 03:12:26;;;;;;;4.63;2.30;;;;;;;;;;5073789;28;20193;-68
2021/12/10 03:14:53;;;;;;;3.13;2.40;;;;;;;;;;5083152;28;20204;-65
2021/12/10 03:17:21;;;;;;;5.15;2.50;;;;;;;;;;5073306;28;20602;-65
2021/12/10 03:19:48;;;;;;;3.58;2.40;;;;;;;;;;5063357;28;20196;-65
2021/12/10 03:22:14;;;;;;;5.72;2.58;;;;;;;;;;5072321;28;20188;-65
2021/12/10 03:24:41;;;;;;;3.78;2.40;;;;;;;;;;5083181;28;20204;-65
2021/12/10 03:27:10;;;;;;;2.60;2.10;;;;;;;;;;5084481;28;20192;-68
2021/12/10 03:29:39;;;;;;;4.00;2.33;;;;;;;;;;5085747;28;20255;-68
2021/12/10 03:32:07;;;;;;;3.42;2.53;;;;;;;;;;5078403;28;20200;-68
2021/12/10 03:34:35;;;;;;;6.53;2.10;;;;;;;;;;5065323;28;20197;-66
2021/12/10 03:37:01;;;;;;;3.38;2.85;;;;;;;;;;5064164;28;20197;-68
2021/12/10 03:39:28;;;;;;;4.50;2.45;;;;;;;;;;5065912;28;20220;-68
2021/12/10 03:41:59;;;;;;;6.15;2.85;;;;;;;;;;5070242;28;20196;-66
2021/12/10 03:44:26;;;;;;;2.53;2.33;;;;;;;;;;5079869;28;20197;-66
2021/12/10 03:46:54;;;;;;;4.03;2.83;;;;;;;;;;5062733;28;20204;-66
2021/12/10 03:49:21;;;;;;;5.45;2.60;;;;;;;;;;5062788;28;20220;-66
2021/12/10 03:51:48;;;;;;;5.25;2.90;;;;;;;;;;5063545;28;20272;-67
2021/12/10 03:54:17;;;;;;;2.47;2.28;;;;;;;;;;5065847;28;20204;-68
2021/12/10 03:56:45;;;;;;;3.22;1.90;;;;;;;;;;5065773;28;20267;-68
2021/12/10 03:59:14;;;;;;;4.45;2.65;;;;;;;;;;5065761;28;20213;-68
2021/12/10 04:01:43;;;;;;;3.65;2.80;;;;;;;;;;5066058;28;20197;-68
2021/12/10 04:04:12;;;;;;;4.63;2.53;;;;;;;;;;5065857;28;20204;-68
2021/12/10 04:06:39;;;;;;;3.78;2.50;;;;;;;;;;5065439;28;20227;-68
2021/12/10 04:09:06;;;;;;;7.38;3.03;;;;;;;;;;5065857;28;20247;-68
2021/12/10 04:11:33;;;;;;;4.50;2.83;;;;;;;;;;5064071;28;20370;-68
2021/12/10 04:13:59;;;;;;;5.22;3.33;;;;;;;;;;5062389;28;20197;-65
2021/12/10 04:16:27;;;;;;;7.72;3.47;;;;;;;;;;5063419;28;20204;-68
2021/12/10 04:18:54;;;;;;;6.70;3.40;;;;;;;;;;5065618;28;20522;-68
2021/12/10 04:21:23;;;;;;;4.03;3.60;;;;;;;;;;5065440;28;20196;-68
2021/12/10 04:23:49;;;;;;;5.47;3.60;;;;;;;;;;5065429;28;20212;-68
2021/12/10 04:26:18;;;;;;;5.22;3.65;;;;;;;;;;5065083;28;20394;-67
2021/12/10 04:28:45;;;;;;;6.75;3.83;;;;;;;;;;5065034;28;20396;-67
2021/12/10 04:31:14;;;;;;;4.93;4.43;;;;;;;;;;5065240;28;20385;-67
2021/12/10 04:33:40;;;;;;;9.18;6.05;;;;;;;;;;5065118;28;20197;-67
2021/12/10 04:36:08;;;;;;;10.45;5.60;;;;;;;;;;5065074;28;20457;-67
2021/12/10 04:38:36;;;;;;;18.38;8.10;;;;;;;;;;5063729;28;20229;-65
2021/12/10 04:41:05;;;;;;;20.48;9.57;;;;;;;;;;5062198;28;20216;-65
2021/12/10 04:43:32;;;;;;;16.13;7.95;;;;;;;;;;5062121;28;20197;-65
2021/12/10 04:45:59;;;;;;;8.48;5.07;;;;;;;;;;5061825;28;20430;-65
2021/12/10 04:48:26;;;;;;;11.15;4.85;;;;;;;;;;5062100;28;20201;-65
2021/12/10 04:50:53;;;;;;;7.97;4.78;;;;;;;;;;5062185;28;20392;-65
2021/12/10 04:53:19;;;;;;;9.75;4.82;;;;;;;;;;5062005;28;20197;-65
2021/12/10 04:55:50;;;;;;;6.95;4.40;;;;;;;;;;5061750;28;20208;-65
2021/12/10 04:58:17;;;;;;;7.40;4.35;;;;;;;;;;5064070;28;20427;-65
2021/12/10 05:00:44;;;;;;;6.57;4.05;;;;;;;;;;5066255;28;20197;-65
2021/12/10 05:03:11;;;;;;;10.07;4.78;;;;;;;;;;5065910;28;20204;-65
2021/12/10 05:05:39;;;;;;;8.98;4.75;;;;;;;;;;5065630;28;20197;-65
2021/12/10 05:08:06;;;;;;;5.85;4.72;;;;;;;;;;5065830;28;20189;-65
2021/12/10 05:10:33;;;;;;;6.38;4.68;;;;;;;;;;5065749;28;20197;-65
2021/12/10 05:13:01;;;;;;;8.85;4.57;;;;;;;;;;5065860;28;20197;-65
2021/12/10 05:15:29;;;;;;;7.80;4.43;;;;;;;;;;5065441;28;20205;-65
2021/12/10 05:17:56;;;;;;;8.20;5.20;;;;;;;;;;5065578;28;20209;-65
2021/12/10 05:20:24;;;;;;;8.07;4.72;;;;;;;;;;5065813;28;20197;-65
2021/12/10 05:22:51;;;;;;;6.03;4.40;;;;;;;;;;5065656;28;20197;-65
2021/12/10 05:25:18;;;;;;;12.25;5.82;;;;;;;;;;5065338;28;20204;-65
2021/12/10 05:27:45;;;;;;;7.45;5.30;;;;;;;;;;5065630;28;20485;-65
2021/12/10 05:30:15;;;;;;;6.57;5.32;;;;;;;;;;5065387;28;20204;-65
2021/12/10 05:32:42;;;;;;;7.10;5.20;;;;;;;;;;5067809;28;20393;-67
2021/12/10 05:35:09;;;;;;;7.82;4.70;;;;;;;;;;5068220;28;20197;-67
2021/12/10 05:37:35;;;;;;;12.32;5.53;;;;;;;;;;5066004;28;20198;-65
2021/12/10 05:40:02;;;;;;;10.00;5.47;;;;;;;;;;5065249;28;20548;-65
2021/12/10 05:42:28;;;;;;;11.05;5.70;;;;;;;;;;5064994;28;20508;-65
2021/12/10 05:44:54;;;;;;;11.07;5.88;;;;;;;;;;5064700;28;20224;-65
2021/12/10 05:47:22;;;;;;;7.75;5.65;;;;;;;;;;5065123;28;20197;-65
2021/12/10 05:49:49;;;;;;;9.77;5.15;;;;;;;;;;5064956;28;20197;-65
2021/12/10 05:52:15;;;;;;;8.43;5.70;;;;;;;;;;5065132;28;20197;-66
2021/12/10 05:54:43;;;;;;;7.50;5.78;;;;;;;;;;5064906;28;20243;-65
2021/12/10 05:57:10;;;;;;;7.93;6.53;;;;;;;;;;5065240;28;20412;-65
2021/12/10 05:59:36;;;;;;;11.00;7.10;;;;;;;;;;5064731;28;20284;-65
2021/12/10 06:02:04;;;;;;;8.73;6.13;;;;;;;;;;5065084;28;20201;-65
2021/12/10 06:04:33;;;;;;;12.25;6.97;;;;;;;;;;5064808;28;20197;-65
2021/12/10 06:06:59;;;;;;;8.43;5.82;;;;;;;;;;5066366;28;20204;-67
2021/12/10 06:09:25;;;;;;;8.80;5.85;;;;;;;;;;5067057;28;20200;-68
2021/12/10 06:11:52;;;;;;;12.63;6.15;;;;;;;;;;5065868;28;20276;-67
2021/12/10 06:14:19;;;;;;;8.73;4.95;;;;;;;;;;5064701;28;20197;-67
2021/12/10 06:16:45;;;;;;;12.73;5.80;;;;;;;;;;5064361;28;20204;-67
2021/12/10 06:19:12;;;;;;;9.40;5.85;;;;;;;;;;5064754;28;20551;-67
2021/12/10 06:21:40;;;;;;;8.85;5.93;;;;;;;;;;5064717;28;20204;-65
2021/12/10 06:24:07;;;;;;;7.07;5.72;;;;;;;;;;5064675;28;20205;-65
2021/12/10 06:26:34;;;;;;;6.70;5.70;;;;;;;;;;5063985;28;20197;-65
2021/12/10 06:29:00;;;;;;;6.63;5.40;;;;;;;;;;5064302;28;20200;-65
2021/12/10 06:31:27;;;;;;;13.43;5.82;;;;;;;;;;5064357;28;20471;-65
2021/12/10 06:33:53;;;;;;;7.82;6.05;;;;;;;;;;5064397;28;20198;-65
2021/12/10 06:36:20;;;;;;;9.18;5.55;;;;;;;;;;5064005;28;20520;-65
2021/12/10 06:38:48;;;;;;;7.05;5.95;;;;;;;;;;5064088;28;20217;-68
2021/12/10 06:41:15;;;;;;;7.75;6.07;;;;;;;;;;5064013;28;20212;-68
2021/12/10 06:43:42;;;;;;;6.93;5.55;;;;;;;;;;5064268;28;20459;-68
2021/12/10 06:46:09;;;;;;;10.27;6.25;;;;;;;;;;5063664;28;20224;-68
2021/12/10 06:48:36;;;;;;;7.85;6.53;;;;;;;;;;5063932;28;20200;-68
2021/12/10 06:51:04;;;;;;;10.25;6.15;;;;;;;;;;5063713;28;20390;-68
2021/12/10 06:53:31;;;;;;;7.68;6.32;;;;;;;;;;5061821;28;20209;-70
2021/12/10 06:56:00;;;;;;;11.95;7.40;;;;;;;;;;5060897;28;20681;-69
2021/12/10 06:58:28;;;;;;;7.72;6.65;;;;;;;;;;5069358;28;20315;-69
2021/12/10 07:00:57;;;;;;;11.65;8.40;;;;;;;;;;5076123;28;20402;-68
2021/12/10 07:03:25;;;;;;;14.30;8.50;;;;;;;;;;5079155;28;20526;-68
2021/12/10 07:05:52;;;;;;;16.55;8.52;;;;;;;;;;5079714;28;20204;-68
2021/12/10 07:08:19;;;;;;;8.38;7.53;;;;;;;;;;5079324;28;20200;-68
2021/12/10 07:10:46;;;;;;;12.25;8.20;;;;;;;;;;5080083;28;20204;-68
2021/12/10 07:13:15;;;;;;;14.95;8.02;;;;;;;;;;5080771;28;20280;-68
2021/12/10 07:15:43;;;;;;;16.65;8.70;;;;;;;;;;5068942;28;20205;-68
2021/12/10 07:18:09;;;;;;;11.98;8.75;;;;;;;;;;5060668;28;20497;-68
2021/12/10 07:20:36;;;;;;;17.50;8.15;;;;;;;;;;5059869;28;20205;-69
2021/12/10 07:23:03;;;;;;;12.45;7.88;;;;;;;;;;5060356;28;20224;-68
2021/12/10 07:25:29;;;;;;;11.45;7.22;;;;;;;;;;5059909;28;20224;-68
2021/12/10 07:27:56;;;;;;;13.80;7.95;;;;;;;;;;5060464;28;20212;-68
2021/12/10 07:30:25;;;;;;;15.73;8.23;;;;;;;;;;5060326;28;20205;-68
2021/12/10 07:32:51;;;;;;;12.20;8.30;;;;;;;;;;5060276;28;20228;-69
2021/12/10 07:35:18;;;;;;;16.15;8.35;;;;;;;;;;5060006;28;20205;-69
2021/12/10 07:37:44;;;;;;;16.80;8.90;;;;;;;;;;5060659;28;20492;-69
2021/12/10 07:40:13;;;;;;;15.15;9.35;;;;;;;;;;5060372;28;20455;-68
2021/12/10 07:42:39;;;;;;;16.27;9.48;;;;;;;;;;5060579;28;20205;-68
2021/12/10 07:45:08;;;;;;;15.90;9.43;;;;;;;;;;5059965;28;20264;-67
2021/12/10 07:47:37;;;;;;;16.35;8.75;;;;;;;;;;5059524;28;20212;-68
2021/12/10 07:50:05;;;;;;;13.27;9.23;;;;;;;;;;5059334;28;20311;-68
2021/12/10 07:52:34;;;;;;;14.88;9.50;;;;;;;;;;5073393;28;20204;-68
2021/12/10 07:55:01;;;;;;;15.27;9.40;;;;;;;;;;5078198;28;20261;-68
2021/12/10 07:57:29;;;;;;;13.77;9.15;;;;;;;;;;5079113;28;20193;-68
2021/12/10 07:59:55;;;;;;;16.08;9.55;;;;;;;;;;5079139;28;20536;-68
2021/12/10 08:02:22;;;;;;;12.15;9.25;;;;;;;;;;5061115;28;20205;-68
2021/12/10 08:04:50;;;;;;;12.85;9.35;;;;;;;;;;5058987;28;20212;-68
2021/12/10 08:07:17;;;;;;;15.30;8.70;;;;;;;;;;5059340;28;20392;-68
2021/12/10 08:09:44;;;;;;;13.98;8.82;;;;;;;;;;5059233;28;20224;-68
2021/12/10 08:12:11;;;;;;;17.20;10.63;;;;;;;;;;5059052;28;20205;-68
2021/12/10 08:14:37;;;;;;;13.95;9.65;;;;;;;;;;5058551;28;20205;-68
2021/12/10 08:17:04;;;;;;;10.73;8.40;;;;;;;;;;5058699;28;20266;-68
2021/12/10 08:19:30;;;;;;;11.82;8.27;;;;;;;;;;5058881;28;20221;-68
2021/12/10 08:21:59;;;;;;;13.40;8.07;;;;;;;;;;5058784;28;20205;-68
2021/12/10 08:24:25;;;;;;;10.73;7.57;;;;;;;;;;5058968;28;20201;-69
2021/12/10 08:26:51;;;;;;;10.15;8.10;;;;;;;;;;5072758;28;20739;-68
2021/12/10 08:29:20;;;;;;;11.68;8.15;;;;;;;;;;5078776;28;20201;-68
2021/12/10 08:31:47;;;;;;;13.82;7.68;;;;;;;;;;5078695;28;20211;-68
2021/12/10 08:34:13;;;;;;;10.50;7.85;;;;;;;;;;5078734;28;20435;-68
2021/12/10 08:36:40;;;;;;;12.38;8.55;;;;;;;;;;5077775;28;20242;-68
2021/12/10 08:39:09;;;;;;;10.00;8.07;;;;;;;;;;5078577;28;20224;-68
2021/12/10 08:41:37;;;;;;;10.35;7.78;;;;;;;;;;5078328;28;20380;-68
2021/12/10 08:44:04;;;;;;;12.23;8.50;;;;;;;;;;5078146;28;20204;-68
2021/12/10 08:46:30;;;;;;;10.30;8.38;;;;;;;;;;5077603;28;20232;-68
2021/12/10 08:48:59;;;;;;;15.93;10.53;;;;;;;;;;5075217;28;20653;-55
2021/12/10 08:51:29;;;;;;;11.93;9.23;;;;;;;;;;5073422;28;20197;-55
2021/12/10 08:53:55;;;;;;;13.55;8.90;;;;;;;;;;5058194;28;20233;-54
2021/12/10 08:56:24;;;;;;;10.15;7.80;;;;;;;;;;5057460;28;20315;-54
2021/12/10 08:58:50;;;;;;;11.82;8.70;;;;;;;;;;5057605;28;20217;-55
2021/12/10 09:01:18;;;;;;;16.02;9.70;;;;;;;;;;5077643;28;20208;-59
2021/12/10 09:03:48;;;;;;;15.60;9.32;;;;;;;;;;5078126;28;20511;-56
2021/12/10 09:06:15;;;;;;;14.63;9.10;;;;;;;;;;5077340;28;20204;-59
2021/12/10 09:08:41;;;;;;;14.10;9.27;;;;;;;;;;5077699;28;20205;-58
2021/12/10 09:11:08;;;;;;;14.38;9.50;;;;;;;;;;5077434;28;20208;-58
2021/12/10 09:13:36;;;;;;;15.32;10.00;;;;;;;;;;5078213;28;20259;-59
2021/12/10 09:16:05;;;;;;;12.13;9.07;;;;;;;;;;5077883;28;20373;-57
2021/12/10 09:18:31;;;;;;;13.52;8.65;;;;;;;;;;5077846;28;20240;-59
2021/12/10 09:20:59;;;;;;;14.55;9.15;;;;;;;;;;5077383;28;20209;-58
2021/12/10 09:23:27;;;;;;;12.45;8.15;;;;;;;;;;5078083;28;20265;-59
2021/12/10 09:25:54;;;;;;;11.10;8.50;;;;;;;;;;5077235;28;20246;-59
2021/12/10 09:28:20;;;;;;;10.23;7.88;;;;;;;;;;5077680;28;20204;-58
2021/12/10 09:30:49;;;;;;;13.10;9.45;;;;;;;;;;5076593;28;20542;-58
2021/12/10 09:33:16;;;;;;;15.00;8.75;;;;;;;;;;5076733;28;20482;-61
2021/12/10 09:35:42;;;;;;;10.60;7.82;;;;;;;;;;5077097;28;20211;-61
2021/12/10 09:38:09;;;;;;;12.25;9.05;;;;;;;;;;5075525;28;20516;-61
2021/12/10 09:40:37;;;;;;;18.17;9.23;;;;;;;;;;5077310;28;20228;-61
2021/12/10 09:43:04;;;;;;;13.15;9.05;;;;;;;;;;5077926;28;20205;-60
2021/12/10 09:45:33;;;;;;;13.50;9.40;;;;;;;;;;5080435;28;20225;-61
2021/12/10 09:48:01;;;;;;;11.20;9.10;;;;;;;;;;5080931;28;20283;-61
2021/12/10 09:50:30;;;;;;;11.90;8.43;;;;;;;;;;5081386;28;20399;-59
2021/12/10 09:52:57;;;;;;;15.50;9.13;;;;;;;;;;5071497;28;20212;-58
2021/12/10 09:55:24;;;;;;;15.82;8.88;;;;;;;;;;5068475;28;20247;-59
2021/12/10 09:57:52;;;;;;;10.95;8.32;;;;;;;;;;5061094;28;20501;-59
2021/12/10 10:00:21;;;;;;;11.85;8.98;;;;;;;;;;5079089;28;20232;-59
2021/12/10 10:02:48;;;;;;;12.85;8.88;;;;;;;;;;5081301;28;20520;-60
2021/12/10 10:05:18;;;;;;;15.57;8.57;;;;;;;;;;5080169;28;20272;-60
2021/12/10 10:07:50;;;;;;;13.27;8.82;;;;;;;;;;5081096;28;20209;-60
2021/12/10 10:10:17;;;;;;;12.95;9.38;;;;;;;;;;5080528;28;20211;-57
2021/12/10 10:12:45;;;;;;;14.20;10.73;;;;;;;;;;5081091;28;20205;-58
2021/12/10 10:15:13;;;;;;;14.43;9.82;;;;;;;;;;5079940;28;20200;-58
2021/12/10 10:17:40;;;;;;;12.85;8.85;;;;;;;;;;5080705;28;20387;-59
2021/12/10 10:20:07;;;;;;;16.23;9.30;;;;;;;;;;5080137;28;20296;-57
2021/12/10 10:22:35;;;;;;;12.50;8.15;;;;;;;;;;5080794;28;20204;-55
2021/12/10 10:25:03;;;;;;;14.55;9.15;;;;;;;;;;5080609;28;20512;-55
2021/12/10 10:27:31;;;;;;;11.98;8.35;;;;;;;;;;5080719;28;20251;-56
2021/12/10 10:30:04;;;;;;;10.95;7.03;;;;;;;;;;5080526;28;20200;-55
2021/12/10 10:32:34;;;;;;;9.35;7.10;;;;;;;;;;5080492;28;20211;-57
2021/12/10 10:35:02;;;;;;;10.00;6.55;;;;;;;;;;5058760;28;20209;-56
2021/12/10 10:37:28;;;;;;;8.85;7.30;;;;;;;;;;5060112;28;20201;-57
2021/12/10 10:39:56;;;;;;;15.77;7.72;;;;;;;;;;5060590;28;20217;-57
2021/12/10 10:42:25;;;;;;;11.48;6.38;;;;;;;;;;5098885;28;20246;-59
2021/12/10 10:44:52;;;;;;;12.38;6.57;;;;;;;;;;5099914;28;20299;-59
2021/12/10 10:47:22;;;;;;;8.50;6.72;;;;;;;;;;5100610;28;20204;-59
2021/12/10 10:49:50;;;;;;;13.40;7.90;;;;;;;;;;5079578;28;20259;-59
2021/12/10 10:52:19;;;;;;;11.40;8.23;;;;;;;;;;5061804;28;20381;-59
2021/12/10 10:54:46;;;;;;;12.15;7.90;;;;;;;;;;5059163;28;20205;-59
2021/12/10 10:57:16;;;;;;;17.50;8.48;;;;;;;;;;5063321;28;20277;-57
2021/12/10 10:59:43;;;;;;;16.55;8.52;;;;;;;;;;5059817;28;20232;-59
2021/12/10 11:02:11;;;;;;;12.82;7.80;;;;;;;;;;5067799;28;20408;-57
2021/12/10 11:04:39;;;;;;;12.73;8.07;;;;;;;;;;5071740;28;20205;-57
2021/12/10 11:07:07;;;;;;;9.90;7.47;;;;;;;;;;5059762;28;20193;-56
2021/12/10 11:09:36;;;;;;;11.43;7.93;;;;;;;;;;5059308;28;20201;-56
2021/12/10 11:12:04;;;;;;;13.65;8.40;;;;;;;;;;5061954;28;20210;-54
2021/12/10 11:14:33;;;;;;;14.23;8.05;;;;;;;;;;5078262;28;20215;-56
2021/12/10 11:17:04;;;;;;;14.05;8.35;;;;;;;;;;5084103;28;20412;-56
2021/12/10 11:19:31;;;;;;;14.50;8.20;;;;;;;;;;5100229;28;20224;-55
2021/12/10 11:21:58;;;;;;;13.00;8.45;;;;;;;;;;5095803;28;20207;-57
2021/12/10 11:24:26;;;;;;;12.35;8.38;;;;;;;;;;5059674;28;20505;-56
2021/12/10 11:26:54;;;;;;;9.93;6.13;;;;;;;;;;5063605;28;20212;-55
2021/12/10 11:29:41;;;;;;;7.40;5.32;;;;;;;;;;5079867;28;20684;-56
2021/12/10 11:32:12;;;;;;;5.85;4.45;;;;;;;;;;5074703;28;20508;-53
2021/12/10 11:34:48;;;;;;;4.55;3.88;;;;;;;;;;5079066;28;20283;-55
2021/12/10 11:37:15;;;;;;;7.40;3.25;;;;;;;;;;5078487;28;20230;-54
2021/12/10 11:39:42;;;;;;;4.03;2.95;;;;;;;;;;5078353;28;20228;-55
2021/12/10 11:42:24;;;;;;;8.90;3.15;;;;;;;;;;5079241;28;20281;-54
2021/12/10 11:45:05;;;;;;;3.72;2.70;;;;;;;;;;5078633;28;20300;-56
2021/12/10 11:47:44;;;;;;;3.63;2.28;;;;;;;;;;5078129;28;20204;-55
2021/12/10 11:50:16;;;;;;;4.07;2.67;;;;;;;;;;5075485;28;20275;-54
2021/12/10 11:52:43;;;;;;;2.00;1.77;;;;;;;;;;5066247;28;20268;-56
2021/12/10 11:55:10;;;;;;;1.17;1.13;;;;;;;;;;5058681;28;20204;-55
2021/12/10 11:57:39;;;;;;;5.07;2.20;;;;;;;;;;5070132;28;20571;-54
2021/12/10 12:00:08;;;;;;;2.10;1.92;;;;;;;;;;5079171;28;20470;-54
2021/12/10 12:02:37;;;;;;;2.45;1.40;;;;;;;;;;5079429;28;20211;-54
2021/12/10 12:05:09;;;;;;;1.05;1.00;;;;;;;;;;5078259;28;20205;-56
2021/12/10 12:07:38;;;;;;;1.30;1.10;;;;;;;;;;5076377;28;20254;-56
2021/12/10 12:10:16;;;;;;;2.08;1.20;;;;;;;;;;5078903;28;20207;-54
2021/12/10 12:12:44;;;;;;;1.98;1.20;;;;;;;;;;5079277;28;20192;-55
2021/12/10 12:15:12;;;;;;;2.10;1.45;;;;;;;;;;5078840;28;20442;-56
2021/12/10 12:17:42;;;;;;;1.23;1.13;;;;;;;;;;5078393;28;20227;-56
2021/12/10 12:20:22;;;;;;;1.00;1.00;;;;;;;;;;5078771;28;20231;-56
2021/12/10 12:25:39;;;;;;;1.30;1.27;;;;;;;;;;5078318;28;20238;-54
2021/12/10 12:28:08;;;;;;;1.30;1.20;;;;;;;;;;5078987;28;20535;-55
2021/12/10 12:30:35;;;;;;;1.27;1.20;;;;;;;;;;5078910;28;20208;-56
2021/12/10 12:33:01;;;;;;;1.67;1.30;;;;;;;;;;5079421;28;20204;-57
2021/12/10 12:35:30;;;;;;;1.00;1.00;;;;;;;;;;5077943;28;20211;-55
2021/12/10 12:38:07;;;;;;;2.30;1.40;;;;;;;;;;5078563;28;20208;-54
2021/12/10 12:40:34;;;;;;;1.20;1.20;;;;;;;;;;5078552;28;20221;-53
2021/12/10 12:43:05;;;;;;;1.60;1.55;;;;;;;;;;5078921;28;20192;-55
2021/12/10 12:45:32;;;;;;;1.90;1.70;;;;;;;;;;5078256;28;20301;-55
2021/12/10 12:47:59;;;;;;;2.05;1.95;;;;;;;;;;5078246;28;20210;-53
2021/12/10 12:50:27;;;;;;;2.45;1.70;;;;;;;;;;5078850;28;20207;-55
2021/12/10 12:52:57;;;;;;;2.30;1.55;;;;;;;;;;5067419;28;20212;-55
2021/12/10 12:55:29;;;;;;;5.72;2.15;;;;;;;;;;5078321;28;20192;-55
2021/12/10 12:57:57;;;;;;;11.70;3.25;;;;;;;;;;5078731;28;20707;-53
2021/12/10 13:00:31;;;;;;;3.72;2.22;;;;;;;;;;5078896;28;20517;-56
2021/12/10 13:02:59;;;;;;;5.35;4.38;;;;;;;;;;5078554;28;20236;-54
2021/12/10 13:05:36;;;;;;;6.28;2.63;;;;;;;;;;5077402;28;20287;-54
2021/12/10 13:08:09;;;;;;;3.08;2.47;;;;;;;;;;5078886;28;20276;-56
2021/12/10 13:10:38;;;;;;;6.60;2.83;;;;;;;;;;5078743;28;20234;-54
2021/12/10 13:13:13;;;;;;;3.50;2.58;;;;;;;;;;5078357;28;20239;-56
2021/12/10 13:15:45;;;;;;;4.15;2.28;;;;;;;;;;5077924;28;20200;-56
2021/12/10 13:18:13;;;;;;;2.13;1.98;;;;;;;;;;5078609;28;20585;-56
2021/12/10 13:20:42;;;;;;;4.70;2.35;;;;;;;;;;5082075;28;20503;-54
2021/12/10 13:23:11;;;;;;;3.65;2.83;;;;;;;;;;5082097;28;20200;-57
2021/12/10 13:25:38;;;;;;;2.38;2.25;;;;;;;;;;5081625;28;20208;-54
2021/12/10 13:28:05;;;;;;;2.80;2.55;;;;;;;;;;5082062;28;20204;-53
2021/12/10 13:30:32;;;;;;;7.03;3.15;;;;;;;;;;5082473;28;20370;-53
2021/12/10 13:32:59;;;;;;;6.28;3.13;;;;;;;;;;5082802;28;20359;-55
2021/12/10 13:35:26;;;;;;;5.07;2.65;;;;;;;;;;5081018;28;20204;-56
2021/12/10 13:37:54;;;;;;;2.90;2.72;;;;;;;;;;5081887;28;20204;-55
2021/12/10 13:40:22;;;;;;;2.97;2.78;;;;;;;;;;5081952;28;20425;-55
2021/12/10 13:42:50;;;;;;;4.45;2.92;;;;;;;;;;5081950;28;20193;-57
2021/12/10 13:45:18;;;;;;;6.80;3.75;;;;;;;;;;5081032;28;20231;-56
2021/12/10 13:47:51;;;;;;;12.20;5.97;;;;;;;;;;5081647;28;20240;-54
2021/12/10 13:50:19;;;;;;;6.13;4.00;;;;;;;;;;5081467;28;20200;-54
2021/12/10 13:52:47;;;;;;;4.22;3.47;;;;;;;;;;5065778;28;20393;-54
2021/12/10 13:55:16;;;;;;;27.00;11.30;;;;;;;;;;5062242;28;20193;-55
2021/12/10 13:57:44;;;;;;;11.00;4.70;;;;;;;;;;5081932;28;20192;-56
2021/12/10 14:00:12;;;;;;;4.75;3.33;;;;;;;;;;5081713;28;20280;-56
2021/12/10 14:02:45;;;;;;;5.80;3.38;;;;;;;;;;5081546;28;20508;-58
2021/12/10 14:05:22;;;;;;;3.47;3.15;;;;;;;;;;5080774;28;20208;-58
2021/12/10 14:07:51;;;;;;;5.05;3.33;;;;;;;;;;5080779;28;20230;-58
2021/12/10 14:10:23;;;;;;;3.65;3.30;;;;;;;;;;5081325;28;20207;-58
2021/12/10 14:12:51;;;;;;;5.85;3.67;;;;;;;;;;5081412;28;20204;-58
2021/12/10 14:15:20;;;;;;;3.67;3.22;;;;;;;;;;5080523;28;20408;-57
2021/12/10 14:17:52;;;;;;;5.65;4.70;;;;;;;;;;5081121;28;20244;-58
2021/12/10 14:20:20;;;;;;;5.10;3.92;;;;;;;;;;5081278;28;20402;-57
2021/12/10 14:22:51;;;;;;;8.02;4.10;;;;;;;;;;5081363;28;20200;-58
2021/12/10 14:25:23;;;;;;;3.38;3.05;;;;;;;;;;5080806;28;20489;-57
2021/12/10 14:27:56;;;;;;;3.63;3.33;;;;;;;;;;5080473;28;20204;-58
2021/12/10 14:30:25;;;;;;;4.53;3.13;;;;;;;;;;5080911;28;20230;-58
2021/12/10 14:33:22;;;;;;;5.28;3.20;;;;;;;;;;5080987;28;20243;-58
2021/12/10 14:35:51;;;;;;;4.57;3.25;;;;;;;;;;5018286;28;20206;-57
2021/12/10 14:38:17;;;;;;;3.15;2.95;;;;;;;;;;5066358;28;20208;-57
2021/12/10 14:40:48;;;;;;;4.47;2.90;;;;;;;;;;5080537;28;20236;-57
2021/12/10 14:43:32;;;;;;;3.70;3.30;;;;;;;;;;5080811;28;20234;-55
2021/12/10 14:46:11;;;;;;;5.32;3.38;;;;;;;;;;5079973;28;20239;-57
2021/12/10 14:48:38;;;;;;;4.57;2.80;;;;;;;;;;5080143;28;20197;-56
2021/12/10 14:51:07;;;;;;;3.45;3.15;;;;;;;;;;5078879;28;20207;-57
2021/12/10 14:53:35;;;;;;;3.10;2.83;;;;;;;;;;5060309;28;20211;-57